createdAt,value
2022-12-28T00:01:38.002Z,101145.05
2022-12-28T00:05:00.191Z,101139.24
2022-12-28T00:08:33.517Z,101139.79
2022-12-28T00:11:56.092Z,101132.08
2022-12-28T00:15:18.460Z,101131.10
2022-12-28T00:18:40.598Z,101131.12
2022-12-28T00:22:03.089Z,101134.90
2022-12-28T00:25:25.889Z,101130.60
2022-12-28T00:28:49.201Z,101132.32
2022-12-28T00:32:11.433Z,101127.85
2022-12-28T00:35:33.766Z,101121.67
2022-12-28T00:38:56.101Z,101118.43
2022-12-28T00:42:19.061Z,101115.22
2022-12-28T00:45:43.602Z,101111.94
2022-12-28T00:49:05.994Z,101118.24
2022-12-28T00:52:28.857Z,101122.20
2022-12-28T00:55:51.107Z,101120.30
2022-12-28T00:59:13.250Z,101116.86
2022-12-28T01:02:35.378Z,101112.55
2022-12-28T01:05:59.943Z,101117.84
2022-12-28T01:09:22.346Z,101119.05
2022-12-28T01:12:48.102Z,101122.34
2022-12-28T01:16:11.684Z,101120.13
2022-12-28T01:19:33.623Z,101118.48
2022-12-28T01:22:56.135Z,101114.80
2022-12-28T01:26:18.801Z,101116.24
2022-12-28T01:29:40.871Z,101113.73
2022-12-28T01:33:03.317Z,101108.98
2022-12-28T01:36:26.245Z,101117.66
2022-12-28T01:39:48.387Z,101115.84
2022-12-28T01:43:13.497Z,101114.20
2022-12-28T01:46:38.439Z,101106.89
2022-12-28T01:50:05.892Z,101098.05
2022-12-28T01:53:28.368Z,101085.93
2022-12-28T01:56:51.577Z,101081.86
2022-12-28T02:00:15.686Z,101081.21
2022-12-28T02:03:40.419Z,101075.41
2022-12-28T02:07:05.432Z,101078.02
2022-12-28T02:10:40.837Z,101080.29
2022-12-28T02:14:09.490Z,101077.40
2022-12-28T02:17:35.001Z,101078.44
2022-12-28T02:21:15.018Z,101080.34
2022-12-28T02:25:12.879Z,101062.89
2022-12-28T02:28:56.330Z,101049.90
2022-12-28T02:32:27.797Z,101041.86
2022-12-28T02:35:55.115Z,101035.52
2022-12-28T02:39:20.905Z,101036.21
2022-12-28T02:42:44.843Z,101039.29
2022-12-28T02:46:28.630Z,101036.19
2022-12-28T02:50:08.957Z,101024.73
2022-12-28T02:53:46.241Z,101008.64
2022-12-28T02:57:14.549Z,100999.92
2022-12-28T03:00:43.223Z,100993.77
2022-12-28T03:04:11.206Z,100994.12
2022-12-28T03:07:56.271Z,100998.94
2022-12-28T03:11:25.516Z,100998.97
2022-12-28T03:14:51.116Z,100993.52
2022-12-28T03:18:33.663Z,100992.02
2022-12-28T03:22:15.141Z,100993.91
2022-12-28T03:25:58.037Z,100996.33
2022-12-28T03:29:44.549Z,100997.04
2022-12-28T03:33:08.014Z,100996.02
2022-12-28T03:36:35.201Z,100986.61
2022-12-28T03:40:00.414Z,100979.10
2022-12-28T03:43:41.121Z,100973.80
2022-12-28T03:47:08.603Z,100966.77
2022-12-28T03:50:34.517Z,100962.00
2022-12-28T03:53:59.117Z,100955.84
2022-12-28T03:57:24.132Z,100947.78
2022-12-28T04:00:47.613Z,100944.51
2022-12-28T04:04:11.237Z,100946.88
2022-12-28T04:07:33.279Z,100940.88
2022-12-28T04:11:00.589Z,100941.19
2022-12-28T04:14:23.258Z,100934.15
2022-12-28T04:17:45.710Z,100916.16
2022-12-28T04:21:08.272Z,100905.67
2022-12-28T04:24:33.075Z,100899.48
2022-12-28T04:27:55.480Z,100886.77
2022-12-28T04:31:40.355Z,100886.77
2022-12-28T04:35:06.828Z,100888.10
2022-12-28T04:38:36.955Z,100889.64
2022-12-28T04:41:59.600Z,100883.66
2022-12-28T04:45:22.578Z,100877.86
2022-12-28T04:48:44.780Z,100872.40
2022-12-28T04:52:06.752Z,100860.79
2022-12-28T04:55:32.411Z,100858.42
2022-12-28T04:58:56.656Z,100864.41
2022-12-28T05:02:21.141Z,100858.61
2022-12-28T05:05:45.405Z,100845.27
2022-12-28T05:09:07.922Z,100832.58
2022-12-28T05:12:30.268Z,100831.54
2022-12-28T05:15:53.123Z,100834.45
2022-12-28T05:19:16.315Z,100830.50
2022-12-28T05:22:41.230Z,100818.14
2022-12-28T05:26:07.336Z,100824.63
2022-12-28T05:29:32.212Z,100832.81
2022-12-28T05:32:55.110Z,100834.84
2022-12-28T05:36:18.316Z,100825.05
2022-12-28T05:39:40.786Z,100818.70
2022-12-28T05:43:03.053Z,100817.14
2022-12-28T05:46:26.595Z,100806.17
2022-12-28T05:49:48.855Z,100796.21
2022-12-28T05:53:11.811Z,100795.33
2022-12-28T05:56:34.550Z,100797.55
2022-12-28T05:59:57.393Z,100791.56
2022-12-28T06:03:22.268Z,100786.63
2022-12-28T06:06:45.231Z,100780.64
2022-12-28T06:10:08.680Z,100780.33
2022-12-28T06:13:31.755Z,100788.92
2022-12-28T06:16:54.068Z,100776.64
2022-12-28T06:20:16.744Z,100764.17
2022-12-28T06:23:40.491Z,100752.75
2022-12-28T06:27:02.871Z,100747.99
2022-12-28T06:30:25.685Z,100751.27
2022-12-28T06:33:49.659Z,100759.31
2022-12-28T06:37:12.507Z,100752.47
2022-12-28T06:41:02.833Z,100748.87
2022-12-28T06:44:17.788Z,100746.82
2022-12-28T06:47:40.197Z,100749.21
2022-12-28T06:51:04.328Z,100748.69
2022-12-28T06:54:26.652Z,100745.39
2022-12-28T06:57:49.381Z,100747.92
2022-12-28T07:01:14.067Z,100747.70
2022-12-28T07:04:36.476Z,100741.34
2022-12-28T07:07:58.541Z,100733.93
2022-12-28T07:11:21.673Z,100728.75
2022-12-28T07:14:44.051Z,100731.27
2022-12-28T07:18:06.973Z,100730.54
2022-12-28T07:21:32.313Z,100722.82
2022-12-28T07:24:54.651Z,100725.38
2022-12-28T07:28:17.205Z,100730.00
2022-12-28T07:31:45.451Z,100720.59
2022-12-28T07:35:09.983Z,100713.22
2022-12-28T07:38:33.586Z,100707.05
2022-12-28T07:41:56.168Z,100702.95
2022-12-28T07:45:18.307Z,100704.13
2022-12-28T07:48:41.338Z,100700.20
2022-12-28T07:52:03.778Z,100696.60
2022-12-28T07:55:29.318Z,100692.86
2022-12-28T07:58:54.174Z,100683.46
2022-12-28T08:02:16.200Z,100677.27
2022-12-28T08:05:40.522Z,100669.23
2022-12-28T08:09:05.010Z,100669.90
2022-12-28T08:12:27.113Z,100664.05
2022-12-28T08:15:54.454Z,100672.78
2022-12-28T08:19:18.036Z,100678.71
2022-12-28T08:22:40.418Z,100682.80
2022-12-28T08:26:06.620Z,100672.62
2022-12-28T08:29:28.990Z,100668.80
2022-12-28T08:32:51.552Z,100666.68
2022-12-28T08:36:14.511Z,100666.09
2022-12-28T08:41:05.188Z,100671.42
2022-12-28T08:45:37.174Z,100665.13
2022-12-28T08:49:05.966Z,100658.73
2022-12-28T08:52:33.856Z,100658.00
2022-12-28T08:56:07.261Z,100650.75
2022-12-28T08:59:34.212Z,100649.23
2022-12-28T09:03:03.700Z,100647.19
2022-12-28T09:06:35.249Z,100645.30
2022-12-28T09:10:06.970Z,100641.17
2022-12-28T09:13:34.573Z,100633.09
2022-12-28T09:17:02.256Z,100632.53
2022-12-28T09:20:32.609Z,100624.42
2022-12-28T09:23:59.774Z,100616.29
2022-12-28T09:27:26.696Z,100616.05
2022-12-28T09:30:57.953Z,100611.67
2022-12-28T09:34:36.124Z,100601.80
2022-12-28T09:38:03.616Z,100595.91
2022-12-28T09:41:34.187Z,100586.59
2022-12-28T09:45:06.679Z,100580.04
2022-12-28T09:48:37.988Z,100576.23
2022-12-28T09:52:29.268Z,100576.52
2022-12-28T09:56:03.675Z,100568.25
2022-12-28T09:59:35.697Z,100548.98
2022-12-28T10:03:08.791Z,100534.50
2022-12-28T10:06:37.002Z,100522.12
2022-12-28T10:10:04.950Z,100513.95
2022-12-28T10:13:54.585Z,100501.97
2022-12-28T10:17:31.282Z,100492.04
2022-12-28T10:21:00.876Z,100491.16
2022-12-28T10:24:32.190Z,100493.92
2022-12-28T10:28:03.069Z,100500.89
2022-12-28T10:31:43.596Z,100501.04
2022-12-28T10:35:29.351Z,100492.54
2022-12-28T10:38:58.320Z,100488.18
2022-12-28T10:42:28.569Z,100478.74
2022-12-28T10:45:56.080Z,100471.35
2022-12-28T10:49:23.729Z,100465.50
2022-12-28T10:53:00.477Z,100459.42
2022-12-28T10:56:30.247Z,100454.06
2022-12-28T11:00:14.911Z,100446.45
2022-12-28T11:03:44.400Z,100444.71
2022-12-28T11:07:31.155Z,100439.30
2022-12-28T11:11:02.705Z,100437.63
2022-12-28T11:14:34.445Z,100434.84
2022-12-28T11:18:03.170Z,100431.15
2022-12-28T11:21:29.658Z,100423.46
2022-12-28T11:25:00.011Z,100412.38
2022-12-28T11:28:26.812Z,100403.38
2022-12-28T11:32:01.606Z,100386.02
2022-12-28T11:35:33.265Z,100375.98
2022-12-28T11:39:00.024Z,100373.44
2022-12-28T11:42:56.445Z,100374.86
2022-12-28T11:46:43.157Z,100364.13
2022-12-28T11:50:58.694Z,100358.24
2022-12-28T11:54:40.683Z,100352.11
2022-12-28T11:58:44.675Z,100347.63
2022-12-28T12:02:44.865Z,100340.92
2022-12-28T12:06:13.100Z,100345.71
2022-12-28T12:09:49.528Z,100344.59
2022-12-28T12:13:44.986Z,100341.08
2022-12-28T12:17:18.667Z,100337.64
2022-12-28T12:20:54.116Z,100332.53
2022-12-28T12:24:29.004Z,100323.48
2022-12-28T12:27:59.790Z,100317.35
2022-12-28T12:31:31.533Z,100311.88
2022-12-28T12:35:03.805Z,100311.89
2022-12-28T12:38:47.472Z,100303.77
2022-12-28T12:42:24.513Z,100302.89
2022-12-28T12:45:59.466Z,100290.52
2022-12-28T12:49:39.100Z,100290.43
2022-12-28T12:53:19.695Z,100283.61
2022-12-28T12:56:53.591Z,100276.20
2022-12-28T13:00:22.630Z,100264.24
2022-12-28T13:03:51.076Z,100266.50
2022-12-28T13:07:25.396Z,100268.46
2022-12-28T13:10:55.822Z,100263.25
2022-12-28T13:14:25.026Z,100257.92
2022-12-28T13:21:53.848Z,100247.08
2022-12-28T13:25:29.862Z,100249.02
2022-12-28T13:29:01.617Z,100245.32
2022-12-28T13:32:35.995Z,100240.61
2022-12-28T13:36:15.379Z,100236.02
2022-12-28T13:39:42.649Z,100236.01
2022-12-28T13:43:49.033Z,100229.90
2022-12-28T13:47:23.950Z,100233.05
2022-12-28T13:50:52.653Z,100233.09
2022-12-28T13:54:19.802Z,100227.65
2022-12-28T13:57:55.735Z,100219.80
2022-12-28T14:01:29.494Z,100211.39
2022-12-28T14:04:57.255Z,100210.36
2022-12-28T14:08:25.124Z,100215.83
2022-12-28T14:11:52.144Z,100215.27
2022-12-28T14:15:19.876Z,100216.14
2022-12-28T14:18:48.168Z,100217.88
2022-12-28T14:22:32.026Z,100210.69
2022-12-28T14:26:00.003Z,100209.02
2022-12-28T14:29:32.589Z,100199.42
2022-12-28T14:33:02.564Z,100197.11
2022-12-28T14:36:34.202Z,100196.66
2022-12-28T14:40:06.295Z,100197.54
2022-12-28T14:43:37.997Z,100193.43
2022-12-28T14:47:25.654Z,100203.77
2022-12-28T14:51:02.846Z,100199.96
2022-12-28T14:54:30.774Z,100197.79
2022-12-28T14:58:03.917Z,100194.59
2022-12-28T15:01:43.621Z,100195.27
2022-12-28T15:05:38.772Z,100197.88
2022-12-28T15:09:08.715Z,100200.91
2022-12-28T15:12:36.064Z,100203.53
2022-12-28T15:16:06.882Z,100201.44
2022-12-28T15:19:34.032Z,100196.21
2022-12-28T15:23:00.350Z,100191.16
2022-12-28T15:26:28.258Z,100191.09
2022-12-28T15:30:05.310Z,100190.45
2022-12-28T15:33:33.716Z,100184.63
2022-12-28T15:37:00.457Z,100183.00
2022-12-28T15:40:29.345Z,100178.10
2022-12-28T15:43:56.644Z,100176.85
2022-12-28T15:47:24.257Z,100184.91
2022-12-28T15:50:51.603Z,100187.64
2022-12-28T15:54:23.225Z,100192.77
2022-12-28T15:57:50.367Z,100189.69
2022-12-28T16:01:19.892Z,100189.70
2022-12-28T16:04:48.156Z,100188.96
2022-12-28T16:08:15.211Z,100179.11
2022-12-28T16:11:43.236Z,100182.16
2022-12-28T16:15:13.668Z,100188.81
2022-12-28T16:18:42.161Z,100179.45
2022-12-28T16:22:09.584Z,100180.27
2022-12-28T16:29:17.408Z,100181.11
2022-12-28T16:32:44.298Z,100175.25
2022-12-28T16:36:16.443Z,100179.48
2022-12-28T16:39:44.311Z,100177.61
2022-12-28T16:43:11.832Z,100175.05
2022-12-28T16:46:39.271Z,100176.98
2022-12-28T16:50:06.695Z,100177.92
2022-12-28T16:53:35.203Z,100174.42
2022-12-28T16:57:04.359Z,100177.25
2022-12-28T17:00:32.791Z,100177.33
2022-12-28T17:04:04.021Z,100171.39
2022-12-28T17:07:35.327Z,100174.15
2022-12-28T17:11:12.086Z,100174.00
2022-12-28T17:14:39.670Z,100175.11
2022-12-28T17:18:08.289Z,100172.67
2022-12-28T17:21:39.175Z,100168.44
2022-12-28T17:25:07.573Z,100163.19
2022-12-28T17:28:35.934Z,100164.51
2022-12-28T17:32:04.138Z,100164.04
2022-12-28T17:35:32.912Z,100169.16
2022-12-28T17:38:59.688Z,100163.59
2022-12-28T17:42:25.960Z,100163.77
2022-12-28T17:45:52.627Z,100155.52
2022-12-28T17:49:22.478Z,100158.15
2022-12-28T17:52:49.556Z,100157.42
2022-12-28T17:56:23.101Z,100160.12
2022-12-28T17:59:54.823Z,100165.56
2022-12-28T18:03:31.576Z,100159.52
2022-12-28T18:07:00.490Z,100158.40
2022-12-28T18:10:28.206Z,100163.80
2022-12-28T18:14:00.257Z,100163.59
2022-12-28T18:17:27.485Z,100158.69
2022-12-28T18:21:04.244Z,100155.67
2022-12-28T18:24:33.799Z,100150.71
2022-12-28T18:28:01.762Z,100155.21
2022-12-28T18:31:30.572Z,100153.85
2022-12-28T18:35:01.666Z,100158.09
2022-12-28T18:38:29.466Z,100156.98
2022-12-28T18:41:56.232Z,100152.09
2022-12-28T18:45:24.212Z,100157.10
2022-12-28T18:49:09.540Z,100154.77
2022-12-28T18:52:37.939Z,100151.15
2022-12-28T18:56:07.094Z,100148.34
2022-12-28T18:59:37.663Z,100150.87
2022-12-28T19:03:06.220Z,100146.96
2022-12-28T19:06:33.341Z,100148.93
2022-12-28T19:10:25.601Z,100154.38
2022-12-28T19:13:53.417Z,100152.88
2022-12-28T19:17:24.871Z,100155.56
2022-12-28T19:21:02.790Z,100154.17
2022-12-28T19:24:37.349Z,100153.91
2022-12-28T19:28:13.821Z,100153.86
2022-12-28T19:31:55.381Z,100152.60
2022-12-28T19:35:36.204Z,100153.39
2022-12-28T19:39:04.297Z,100156.24
2022-12-28T19:42:34.167Z,100151.34
2022-12-28T19:46:07.087Z,100143.52
2022-12-28T19:49:33.797Z,100142.16
2022-12-28T19:53:04.831Z,100139.15
2022-12-28T19:56:33.240Z,100137.64
2022-12-28T19:59:59.686Z,100138.39
2022-12-28T20:03:26.882Z,100132.66
2022-12-28T20:06:54.412Z,100127.35
2022-12-28T20:10:22.284Z,100126.14
2022-12-28T20:13:52.648Z,100117.67
2022-12-28T20:17:19.960Z,100116.22
2022-12-28T20:21:17.924Z,100120.75
2022-12-28T20:24:35.008Z,100124.48
2022-12-28T20:28:04.053Z,100121.92
2022-12-28T20:31:33.890Z,100117.98
2022-12-28T20:35:00.827Z,100114.89
2022-12-28T20:38:29.348Z,100120.17
2022-12-28T20:42:13.821Z,100120.55
2022-12-28T20:45:52.277Z,100112.38
2022-12-28T20:49:23.809Z,100119.02
2022-12-28T20:52:53.372Z,100115.95
2022-12-28T20:56:21.568Z,100115.05
2022-12-28T20:59:49.344Z,100108.25
2022-12-28T21:03:16.886Z,100109.52
2022-12-28T21:06:46.022Z,100106.66
2022-12-28T21:10:17.422Z,100108.27
2022-12-28T21:13:47.055Z,100107.61
2022-12-28T21:17:15.151Z,100110.45
2022-12-28T21:20:51.434Z,100109.96
2022-12-28T21:24:22.622Z,100106.85
2022-12-28T21:27:58.942Z,100105.48
2022-12-28T21:31:28.713Z,100098.14
2022-12-28T21:34:59.858Z,100099.14
2022-12-28T21:38:28.739Z,100091.68
2022-12-28T21:42:01.978Z,100089.90
2022-12-28T21:45:33.473Z,100082.60
2022-12-28T21:49:03.855Z,100082.36
2022-12-28T21:52:38.141Z,100073.17
2022-12-28T21:56:05.575Z,100065.13
2022-12-28T21:59:35.608Z,100056.70
2022-12-28T22:03:23.284Z,100055.02
2022-12-28T22:06:50.253Z,100049.95
2022-12-28T22:10:36.905Z,100043.58
2022-12-28T22:14:05.383Z,100034.89
2022-12-28T22:17:35.754Z,100032.48
2022-12-28T22:21:08.103Z,100035.75
2022-12-28T22:24:37.971Z,100032.58
2022-12-28T22:28:09.486Z,100030.02
2022-12-28T22:31:40.693Z,100029.50
2022-12-28T22:35:13.382Z,100023.20
2022-12-28T22:38:40.882Z,100018.33
2022-12-28T22:42:08.706Z,100017.40
2022-12-28T22:45:36.454Z,100013.08
2022-12-28T22:49:03.432Z,100010.05
2022-12-28T22:52:30.162Z,100005.73
2022-12-28T22:56:20.916Z,100001.84
2022-12-28T22:59:48.751Z,99999.27
2022-12-28T23:03:17.773Z,100001.54
2022-12-28T23:06:44.539Z,100002.79
2022-12-28T23:10:13.248Z,100000.08
2022-12-28T23:13:42.014Z,99993.70
2022-12-28T23:17:10.572Z,99991.95
2022-12-28T23:21:00.669Z,99983.98
2022-12-28T23:24:59.277Z,99981.83
2022-12-28T23:28:31.911Z,99973.53
2022-12-28T23:32:01.816Z,99973.40
2022-12-28T23:35:29.790Z,99968.44
2022-12-28T23:38:59.387Z,99962.43
2022-12-28T23:42:33.794Z,99961.36
2022-12-28T23:46:09.747Z,99960.13
2022-12-28T23:49:39.807Z,99959.97
2022-12-28T23:53:12.196Z,99961.87
2022-12-28T23:56:40.293Z,99959.92
